Kaneohe Bay Marine Corps Air Facility, HI

11:34 AM HST on October 23, 2014 (GMT -1000)
Wheeler Army Air Field | Change Station
CLOSE
Current Station
Airport
Location: Wheeler AAF,
Elevation: 837 ft
Nearby Weather Stations

Elev 837 ft 21.48 °N, 158.04 °W | Updated 36 minutes ago

Partly Cloudy
Partly Cloudy
81 °F
Feels Like 84 °F
N
6
Wind Variable Wind from ENE

Today
High -- | Low -- °F
--% Chance of Precip.
Yesterday
High -- | Low -- °F
Precip. -- in
6:30 AM 6:00 PM
Waning Crescent, 0% visible
Pressure 30.05 in
Visibility 10.0 miles
Clouds Few 2200 ft
Few 3500 ft
Heat Index 84 °F
Dew Point 68 °F
Humidity 67%
Rainfall 0.01 in
Snow Depth Not available.
UV 7 out of 12
Pollen Not available.
PM2.5 Good
Flu Activity Sporadic
METAR PHHI 232058Z 07005KT 10SM FEW022 FEW035 27/20 A3008 RMK AO2A SLP175 T02700203 50006 $

More Conditions Fewer Conditions

Pressure 30.05 in
Visibility 10.0 miles
Clouds Few 2200 ft
Few 3500 ft
Heat Index 84 °F
Dew Point 68 °F
Humidity 67%
Rainfall 0.01 in
Snow Depth Not available.
UV 7 out of 12
Pollen Not available.
PM2.5 Good
Flu Activity Sporadic
METAR PHHI 232058Z 07005KT 10SM FEW022 FEW035 27/20 A3008 RMK AO2A SLP175 T02700203 50006 $

More Conditions Fewer Conditions

10-Day Weather Forecast

Almanac

Astronomy

Oct. 23, 2014 Rise Set
Actual Time 6:30 AM HST 6:00 PM HST
Civil Twilight 6:07 AM HST 6:22 PM HST
Nautical Twilight 5:41 AM HST 6:49 PM HST
Astronomical Twilight 5:15 AM HST 7:14 PM HST
Moon 6:22 AM HST 6:10 PM HST
Length of Visible Light 12h 15m
Length of Day
11h 30m
Tomorrow will be 1m 7s shorter.
Waning Crescent, 0% of the Moon is Illuminated
Today
Waning Crescent
Oct 23
New
Oct 30
First Quarter
Nov 6
Full
Nov 14
Last Quarter

Today's Extremes

State Highs State Lows

Community

WunderPhotos

Upload Photos

1,764,379 photos uploaded!

WunderBlogs® & News

Nearby

Air Quality

  Air Quality AQ Index Pollutant
Yesterday Good
PM2.5
Current Good
PM2.5
Thursday Good
OZONE
Friday Good
OZONE

Snow Depth

Station Depth Elevation
No new snow has been reported.

Earthquake Activity

City Distance Mag. Time & Date
No recent earthquake activity has been reported nearby.
Minimum magnitude displayed is 2.5.

Coastal Water Temperatures

Place Temperature
No Stations Reporting

Nearby Weather Stations